Time;durP1;ratioP1;P1;durP2;ratioP2;P2;SDS_P1;SDS_P2;PMS_P1;PMS_P2;Temp;Humidity;BMP_temperature;BMP_pressure;BME280_temperature;BME280_humidity;BME280_pressure;Samples;Min_cycle;Max_cycle;Signal;HPM_P1;HPM_P2
2022/06/02 00:03:18;;;;;;;;;;;;;;;16.20;44.53;100361.41;10402678;28;19929;-63
2022/06/02 00:08:39;;;;;;;;;;;;;;;16.16;44.50;100374.28;10412870;28;19925;-62
2022/06/02 00:13:59;;;;;;;;;;;;;;;16.13;44.81;100366.53;10415645;28;19933;-62
2022/06/02 00:19:08;;;;;;;;;;;;;;;16.09;44.90;100373.22;10407108;28;20761;-63
2022/06/02 00:24:25;;;;;;;;;;;;;;;16.04;45.06;100381.75;10395471;28;19956;-63
2022/06/02 00:29:44;;;;;;;;;;;;;;;15.78;45.60;100362.94;10398277;28;19925;-62
2022/06/02 00:34:45;;;;;;;;;;;;;;;15.90;45.33;100391.19;10397157;28;19929;-62
2022/06/02 00:39:47;;;;;;;;;;;;;;;15.92;45.79;100393.72;10400208;28;20039;-62
2022/06/02 00:45:00;;;;;;;;;;;;;;;15.91;45.75;100397.41;10400918;28;19928;-63
2022/06/02 00:50:03;;;;;;;;;;;;;;;15.89;46.19;100407.47;10393708;28;19979;-62
2022/06/02 01:00:30;;;;;;;;;;;;;;;15.82;46.14;100399.19;10397400;28;19933;-63
2022/06/02 01:05:48;;;;;;;;;;;;;;;15.78;46.30;100397.81;10396567;28;19929;-62
2022/06/02 01:10:52;;;;;;;;;;;;;;;15.74;46.67;100402.59;10392533;28;19925;-63
2022/06/02 01:15:57;;;;;;;;;;;;;;;15.74;46.68;100401.75;10395972;28;19933;-62
2022/06/02 01:21:04;;;;;;;;;;;;;;;15.67;46.74;100406.03;10393177;28;19935;-62
2022/06/02 01:26:24;;;;;;;;;;;;;;;15.55;46.98;100398.25;10391680;28;20019;-62
2022/06/02 01:31:45;;;;;;;;;;;;;;;15.51;46.96;100412.94;10391786;28;20070;-62
2022/06/02 01:36:49;;;;;;;;;;;;;;;15.41;47.13;100409.47;10388920;28;19936;-62
2022/06/02 01:42:07;;;;;;;;;;;;;;;15.26;47.77;100419.03;10390533;28;19924;-62
2022/06/02 01:47:31;;;;;;;;;;;;;;;15.16;48.47;100425.31;10396759;28;19935;-61
2022/06/02 01:52:50;;;;;;;;;;;;;;;15.22;48.48;100420.31;10396935;28;19929;-61
2022/06/02 01:58:02;;;;;;;;;;;;;;;15.20;48.67;100426.69;10392274;28;19941;-62
2022/06/02 02:03:15;;;;;;;;;;;;;;;15.23;48.39;100435.44;10393131;28;20004;-62
2022/06/02 02:08:34;;;;;;;;;;;;;;;15.18;48.39;100442.06;10394969;28;20016;-62
2022/06/02 02:13:49;;;;;;;;;;;;;;;15.10;48.53;100442.00;10396165;28;19929;-61
2022/06/02 02:18:51;;;;;;;;;;;;;;;15.05;48.87;100438.06;10395840;28;20209;-67
2022/06/02 02:23:57;;;;;;;;;;;;;;;15.01;49.21;100438.34;10396864;28;19936;-62
2022/06/02 02:29:07;;;;;;;;;;;;;;;14.95;49.13;100443.44;10400811;28;19984;-61
2022/06/02 02:34:34;;;;;;;;;;;;;;;14.86;49.51;100442.50;10397312;28;19937;-62
2022/06/02 02:39:45;;;;;;;;;;;;;;;14.88;49.55;100442.34;10400150;28;20473;-61
2022/06/02 02:45:07;;;;;;;;;;;;;;;14.84;49.78;100442.63;10358851;28;19987;-62
2022/06/02 02:50:14;;;;;;;;;;;;;;;14.84;49.96;100442.63;10361278;28;20683;-62
2022/06/02 02:55:20;;;;;;;;;;;;;;;14.83;50.00;100449.00;10353976;28;20506;-62
2022/06/02 03:00:40;;;;;;;;;;;;;;;14.85;50.41;100460.41;10353383;28;19948;-62
2022/06/02 03:05:44;;;;;;;;;;;;;;;14.72;50.15;100457.22;10353779;28;20023;-62
2022/06/02 03:10:49;;;;;;;;;;;;;;;14.67;50.82;100467.53;10370374;28;19929;-64
2022/06/02 03:15:53;;;;;;;;;;;;;;;14.49;51.15;100476.25;10351944;28;19932;-62
2022/06/02 03:20:54;;;;;;;;;;;;;;;14.33;51.87;100484.03;10350695;28;20402;-62
2022/06/02 03:26:08;;;;;;;;;;;;;;;14.36;51.84;100475.72;10352711;28;19929;-63
2022/06/02 03:31:09;;;;;;;;;;;;;;;14.42;51.88;100479.66;10388470;28;20575;-61
2022/06/02 03:36:21;;;;;;;;;;;;;;;14.46;51.79;100495.31;10394051;28;19925;-62
2022/06/02 03:41:40;;;;;;;;;;;;;;;14.40;51.81;100506.59;10391736;28;20031;-63
2022/06/02 03:46:52;;;;;;;;;;;;;;;14.37;51.81;100504.19;10387731;28;20008;-63
2022/06/02 03:52:16;;;;;;;;;;;;;;;14.42;52.05;100507.28;10391508;28;19939;-61
2022/06/02 03:57:36;;;;;;;;;;;;;;;14.41;51.86;100507.41;10400128;28;19929;-61
2022/06/02 04:02:43;;;;;;;;;;;;;;;14.29;52.08;100512.94;10388742;28;20664;-62
2022/06/02 04:08:03;;;;;;;;;;;;;;;14.19;52.57;100511.25;10418362;28;19920;-62
2022/06/02 04:18:27;;;;;;;;;;;;;;;14.08;53.16;100514.88;10394232;28;20008;-62
2022/06/02 04:23:41;;;;;;;;;;;;;;;14.11;54.09;100526.19;10381939;28;19925;-62
2022/06/02 04:28:57;;;;;;;;;;;;;;;13.94;53.37;100505.44;10386151;28;19929;-62
2022/06/02 04:34:08;;;;;;;;;;;;;;;14.12;53.82;100535.88;10354647;28;20454;-61
2022/06/02 04:39:20;;;;;;;;;;;;;;;14.16;54.15;100528.44;10356424;28;20015;-61
2022/06/02 04:44:41;;;;;;;;;;;;;;;14.24;53.80;100535.75;10360109;28;20766;-61
2022/06/02 04:49:47;;;;;;;;;;;;;;;14.27;53.91;100532.81;10355264;28;19929;-62
2022/06/02 04:55:07;;;;;;;;;;;;;;;14.32;54.12;100543.91;10356314;28;19940;-62
2022/06/02 05:00:23;;;;;;;;;;;;;;;14.38;54.27;100546.06;10327388;28;19929;-61
2022/06/02 05:05:27;;;;;;;;;;;;;;;14.42;54.01;100543.94;10387290;28;19955;-62
2022/06/02 05:10:47;;;;;;;;;;;;;;;14.46;54.32;100545.34;10395325;27;19941;-62
2022/06/02 05:15:56;;;;;;;;;;;;;;;14.53;54.15;100540.25;10386394;28;20583;-63
2022/06/02 05:20:57;;;;;;;;;;;;;;;14.58;53.53;100554.94;10391000;28;19932;-62
2022/06/02 05:26:01;;;;;;;;;;;;;;;14.56;54.03;100550.69;10394696;28;19986;-61
2022/06/02 05:31:23;;;;;;;;;;;;;;;14.54;54.06;100548.16;10392055;28;20760;-61
2022/06/02 05:36:39;;;;;;;;;;;;;;;14.64;54.13;100569.63;10361065;28;19972;-61
2022/06/02 05:42:01;;;;;;;;;;;;;;;14.71;54.43;100569.88;10389375;28;19932;-62
2022/06/02 05:47:09;;;;;;;;;;;;;;;14.87;54.11;100566.63;10393040;28;19975;-62
2022/06/02 05:52:16;;;;;;;;;;;;;;;15.01;53.88;100575.06;10423583;28;20026;-62
2022/06/02 05:57:35;;;;;;;;;;;;;;;15.00;53.62;100554.59;10396248;28;19948;-60
2022/06/02 06:02:48;;;;;;;;;;;;;;;15.18;53.70;100592.22;10392717;28;19960;-60
2022/06/02 06:08:02;;;;;;;;;;;;;;;15.26;52.97;100590.66;10399428;28;20785;-61
2022/06/02 06:13:12;;;;;;;;;;;;;;;15.31;53.83;100588.38;10392470;28;19940;-63
2022/06/02 06:18:20;;;;;;;;;;;;;;;15.42;52.82;100607.00;10392915;28;19929;-62
2022/06/02 06:23:21;;;;;;;;;;;;;;;15.51;53.88;100600.75;10390909;28;19929;-63
2022/06/02 06:28:25;;;;;;;;;;;;;;;15.62;53.51;100614.97;10395043;28;19952;-63
2022/06/02 06:33:30;;;;;;;;;;;;;;;15.76;53.27;100627.03;10339931;28;20019;-62
2022/06/02 06:38:39;;;;;;;;;;;;;;;15.93;52.48;100620.06;10349050;28;19929;-63
2022/06/02 06:44:00;;;;;;;;;;;;;;;16.11;51.65;100625.47;10343856;28;22242;-60
2022/06/02 06:49:16;;;;;;;;;;;;;;;16.29;51.43;100630.88;10338737;28;20288;-61
2022/06/02 06:54:27;;;;;;;;;;;;;;;16.40;50.59;100633.34;10352594;28;19928;-60
2022/06/02 06:59:48;;;;;;;;;;;;;;;16.50;50.12;100623.38;10337305;28;19930;-62
2022/06/02 07:05:09;;;;;;;;;;;;;;;16.40;50.33;100591.22;10342978;28;19933;-61
2022/06/02 07:10:15;;;;;;;;;;;;;;;16.84;50.42;100624.53;10396400;28;19936;-61
2022/06/02 07:15:28;;;;;;;;;;;;;;;16.99;49.17;100625.66;10391728;28;20772;-62
2022/06/02 07:20:48;;;;;;;;;;;;;;;17.05;48.93;100629.59;10394493;28;20023;-61
2022/06/02 07:25:57;;;;;;;;;;;;;;;17.23;49.17;100630.38;10402737;28;20307;-61
2022/06/02 07:31:01;;;;;;;;;;;;;;;17.44;48.32;100626.47;10391679;28;20288;-61
2022/06/02 07:36:21;;;;;;;;;;;;;;;17.45;47.98;100620.94;10391644;28;19982;-61
2022/06/02 07:41:23;;;;;;;;;;;;;;;17.54;47.07;100608.38;10390978;28;19936;-61
2022/06/02 07:46:27;;;;;;;;;;;;;;;17.76;47.47;100611.50;10391194;28;19931;-60
2022/06/02 07:51:28;;;;;;;;;;;;;;;17.94;46.72;100611.44;10391182;28;19933;-63
2022/06/02 07:56:30;;;;;;;;;;;;;;;18.08;45.38;100623.44;10392124;28;20749;-60
2022/06/02 08:01:47;;;;;;;;;;;;;;;18.44;45.24;100617.81;10385091;28;19933;-61
2022/06/02 08:06:59;;;;;;;;;;;;;;;18.64;44.33;100618.31;10332091;28;19935;-60
2022/06/02 08:12:19;;;;;;;;;;;;;;;18.86;42.15;100631.16;10385173;28;20387;-60
2022/06/02 08:17:23;;;;;;;;;;;;;;;19.03;41.41;100629.31;10389016;28;19933;-61
2022/06/02 08:22:43;;;;;;;;;;;;;;;19.29;41.72;100628.28;10392526;27;20323;-60
2022/06/02 08:27:58;;;;;;;;;;;;;;;18.94;41.11;100616.00;10385611;28;20067;-60
2022/06/02 08:33:23;;;;;;;;;;;;;;;19.16;41.36;100627.97;10359971;28;19940;-60
2022/06/02 08:38:46;;;;;;;;;;;;;;;19.42;40.54;100628.56;10350783;28;19939;-61
2022/06/02 08:44:00;;;;;;;;;;;;;;;19.61;40.36;100627.34;10386291;28;20749;-62
2022/06/02 08:49:07;;;;;;;;;;;;;;;19.77;39.28;100634.59;10396197;28;20372;-62
2022/06/02 08:54:34;;;;;;;;;;;;;;;19.96;39.35;100633.31;10399277;27;19933;-60
2022/06/02 08:59:38;;;;;;;;;;;;;;;19.84;38.97;100636.59;10397524;28;19929;-63
2022/06/02 09:04:52;;;;;;;;;;;;;;;20.07;38.61;100642.91;10391611;28;20403;-60
2022/06/02 09:10:19;;;;;;;;;;;;;;;20.30;37.70;100628.59;10394679;28;19937;-61
2022/06/02 09:15:47;;;;;;;;;;;;;;;20.71;37.06;100625.63;10390316;28;20771;-60
2022/06/02 09:20:53;;;;;;;;;;;;;;;20.80;35.41;100627.25;10382132;28;20016;-59
2022/06/02 09:26:13;;;;;;;;;;;;;;;21.33;36.13;100626.41;10400631;28;20047;-61
2022/06/02 09:31:27;;;;;;;;;;;;;;;21.59;35.65;100619.75;10398213;28;19944;-60
2022/06/02 09:37:09;;;;;;;;;;;;;;;21.89;35.10;100621.41;10387258;28;20768;-61
2022/06/02 09:42:29;;;;;;;;;;;;;;;22.09;35.38;100601.84;10387428;28;19929;-61
2022/06/02 09:47:31;;;;;;;;;;;;;;;22.37;33.96;100601.16;10391081;28;20043;-60
2022/06/02 09:52:51;;;;;;;;;;;;;;;22.40;32.77;100612.44;10391590;28;19984;-60
2022/06/02 09:58:05;;;;;;;;;;;;;;;22.70;31.74;100609.59;10422108;27;19939;-61
2022/06/02 10:03:19;;;;;;;;;;;;;;;23.03;31.53;100608.19;10391955;28;19940;-60
2022/06/02 10:08:35;;;;;;;;;;;;;;;23.33;30.78;100602.59;10394125;28;20833;-60
2022/06/02 10:13:57;;;;;;;;;;;;;;;23.43;30.85;100605.78;10395054;28;19932;-61
2022/06/02 10:19:10;;;;;;;;;;;;;;;23.62;29.80;100598.78;10400670;28;20478;-60
2022/06/02 10:24:30;;;;;;;;;;;;;;;23.80;28.15;100607.22;10391136;28;19928;-63
2022/06/02 10:29:55;;;;;;;;;;;;;;;23.63;29.64;100606.75;10391879;28;19929;-60
2022/06/02 10:34:56;;;;;;;;;;;;;;;23.81;30.59;100608.09;10390260;28;19936;-64
2022/06/02 10:40:00;;;;;;;;;;;;;;;23.74;30.08;100596.34;10393794;28;19929;-61
2022/06/02 10:45:21;;;;;;;;;;;;;;;24.00;29.72;100601.94;10387501;28;20681;-62
2022/06/02 10:50:25;;;;;;;;;;;;;;;24.26;29.31;100594.03;10386914;28;19929;-62
2022/06/02 10:55:39;;;;;;;;;;;;;;;24.52;27.92;100587.81;10391262;28;19937;-63
2022/06/02 11:00:55;;;;;;;;;;;;;;;24.45;28.37;100590.50;10387870;28;20403;-62
2022/06/02 11:06:12;;;;;;;;;;;;;;;24.58;27.29;100572.56;10386914;28;20031;-63
2022/06/02 11:11:33;;;;;;;;;;;;;;;24.94;26.74;100585.75;10385378;28;25681;-62
2022/06/02 11:16:44;;;;;;;;;;;;;;;25.22;24.63;100579.22;10390114;28;19986;-62
2022/06/02 11:21:56;;;;;;;;;;;;;;;25.39;25.86;100582.38;10386563;28;19935;-62
2022/06/02 11:27:16;;;;;;;;;;;;;;;25.09;26.58;100582.00;10342144;28;20323;-62
2022/06/02 11:32:20;;;;;;;;;;;;;;;25.20;26.09;100567.72;10348937;28;19929;-63
2022/06/02 11:37:33;;;;;;;;;;;;;;;25.14;25.06;100574.84;10384565;28;20052;-61
2022/06/02 11:42:54;;;;;;;;;;;;;;;25.11;25.66;100572.53;10409390;28;21333;-62
2022/06/02 11:47:59;;;;;;;;;;;;;;;25.28;25.00;100563.91;10405867;28;20042;-60
2022/06/02 11:53:09;;;;;;;;;;;;;;;25.10;25.08;100556.41;10403171;28;19960;-61
2022/06/02 11:58:29;;;;;;;;;;;;;;;24.84;24.31;100542.63;10413009;28;20469;-61
2022/06/02 12:03:39;;;;;;;;;;;;;;;24.87;25.11;100531.31;10404045;28;19942;-61
2022/06/02 12:08:41;;;;;;;;;;;;;;;24.96;24.90;100540.09;10438202;28;21353;-61
2022/06/02 12:13:44;;;;;;;;;;;;;;;24.78;25.67;100538.03;10421837;28;19932;-62
2022/06/02 12:18:48;;;;;;;;;;;;;;;24.98;25.11;100554.34;10400166;28;19933;-62
2022/06/02 12:24:10;;;;;;;;;;;;;;;24.97;24.72;100538.22;10434101;28;19932;-61
2022/06/02 12:29:11;;;;;;;;;;;;;;;24.64;25.33;100537.19;10400353;28;19955;-61
2022/06/02 12:34:39;;;;;;;;;;;;;;;24.50;25.36;100527.31;10410706;28;20032;-61
2022/06/02 12:39:54;;;;;;;;;;;;;;;24.69;24.51;100512.91;10403288;28;19928;-62
2022/06/02 12:45:01;;;;;;;;;;;;;;;24.73;23.40;100518.78;10403683;28;20109;-62
2022/06/02 12:50:22;;;;;;;;;;;;;;;24.78;23.86;100515.41;10401525;28;19925;-62
2022/06/02 12:55:23;;;;;;;;;;;;;;;24.83;23.42;100502.00;10357869;28;19929;-62
2022/06/02 13:00:47;;;;;;;;;;;;;;;24.92;24.21;100500.75;10358709;28;20032;-63
2022/06/02 13:06:07;;;;;;;;;;;;;;;24.78;23.83;100493.63;10353155;28;19933;-62
2022/06/02 13:11:09;;;;;;;;;;;;;;;24.68;24.62;100500.34;10358050;28;20044;-62
2022/06/02 13:16:19;;;;;;;;;;;;;;;24.63;24.58;100489.25;10361341;28;20447;-62
2022/06/02 13:21:40;;;;;;;;;;;;;;;24.13;25.46;100494.25;10356726;28;19933;-62
2022/06/02 13:27:15;;;;;;;;;;;;;;;24.11;26.15;100486.28;10374444;28;19933;-63
2022/06/02 13:32:49;;;;;;;;;;;;;;;24.05;26.51;100445.47;10370455;28;20044;-63
2022/06/02 13:37:53;;;;;;;;;;;;;;;24.35;26.20;100473.97;10448764;28;20012;-62
2022/06/02 13:43:08;;;;;;;;;;;;;;;24.34;25.64;100466.00;10427414;28;19928;-63
2022/06/02 13:48:29;;;;;;;;;;;;;;;23.98;26.27;100468.06;10407452;28;20057;-62
2022/06/02 13:59:09;;;;;;;;;;;;;;;23.77;25.49;100471.75;10404461;28;20043;-62
2022/06/02 14:04:19;;;;;;;;;;;;;;;23.65;25.82;100467.97;10409456;28;19994;-62
2022/06/02 14:09:30;;;;;;;;;;;;;;;23.63;25.94;100460.03;10399205;28;20447;-62
2022/06/02 14:14:50;;;;;;;;;;;;;;;23.33;25.98;100426.91;10398203;28;19932;-63
2022/06/02 14:20:14;;;;;;;;;;;;;;;23.63;26.68;100451.88;10391877;28;20036;-62
2022/06/02 14:25:15;;;;;;;;;;;;;;;23.67;26.06;100443.31;10395448;28;19924;-62
2022/06/02 14:30:24;;;;;;;;;;;;;;;23.73;25.40;100448.75;10393928;28;19935;-61
2022/06/02 14:35:30;;;;;;;;;;;;;;;23.77;24.96;100433.72;10391812;28;20429;-62
2022/06/02 14:40:38;;;;;;;;;;;;;;;23.66;23.11;100437.03;10394229;28;19986;-62
2022/06/02 14:45:39;;;;;;;;;;;;;;;23.48;24.13;100434.91;10401908;28;19959;-62
2022/06/02 14:50:56;;;;;;;;;;;;;;;23.45;25.26;100440.75;10393752;28;19968;-62
2022/06/02 14:55:58;;;;;;;;;;;;;;;23.40;24.94;100437.78;10393373;28;19928;-62
2022/06/02 15:01:08;;;;;;;;;;;;;;;23.22;25.61;100433.75;10386080;28;19933;-61
2022/06/02 15:06:29;;;;;;;;;;;;;;;23.27;25.99;100441.31;10387442;28;20378;-62
2022/06/02 15:11:37;;;;;;;;;;;;;;;23.24;26.61;100434.41;10391912;28;20027;-62
2022/06/02 15:16:47;;;;;;;;;;;;;;;23.15;26.31;100438.31;10394632;28;20365;-61
2022/06/02 15:21:48;;;;;;;;;;;;;;;22.98;26.56;100423.38;10385602;28;19929;-60
2022/06/02 15:27:05;;;;;;;;;;;;;;;22.92;26.89;100425.00;10374763;28;19924;-61
2022/06/02 15:32:18;;;;;;;;;;;;;;;22.98;25.89;100415.22;10386307;28;19929;-62
2022/06/02 15:37:41;;;;;;;;;;;;;;;22.91;25.04;100416.03;10390983;28;20428;-61
2022/06/02 15:42:42;;;;;;;;;;;;;;;22.85;26.01;100408.69;10386153;28;19929;-61
2022/06/02 15:47:43;;;;;;;;;;;;;;;22.88;26.39;100402.00;10381207;28;19928;-61
2022/06/02 15:53:20;;;;;;;;;;;;;;;22.85;25.63;100386.13;10386571;28;19929;-61
2022/06/02 15:58:27;;;;;;;;;;;;;;;22.77;25.65;100390.72;10381685;28;20367;-61
2022/06/02 16:03:42;;;;;;;;;;;;;;;22.74;25.62;100390.25;10383814;28;19936;-60
2022/06/02 16:15:03;;;;;;;;;;;;;;;22.70;26.27;100369.97;10388343;28;19932;-62
2022/06/02 16:20:17;;;;;;;;;;;;;;;22.68;26.70;100382.94;10370322;28;20391;-65
2022/06/02 16:25:27;;;;;;;;;;;;;;;22.65;26.72;100376.00;10388065;28;20889;-61
2022/06/02 16:30:35;;;;;;;;;;;;;;;22.62;26.96;100378.31;10383786;28;19929;-61
2022/06/02 16:35:36;;;;;;;;;;;;;;;22.60;26.67;100367.66;10385556;28;20070;-59
2022/06/02 16:40:43;;;;;;;;;;;;;;;22.62;27.33;100370.16;10390337;28;19933;-61
2022/06/02 16:46:04;;;;;;;;;;;;;;;22.63;27.28;100374.56;10382011;28;21165;-61
2022/06/02 16:51:24;;;;;;;;;;;;;;;22.62;27.25;100370.16;10421496;28;20475;-60
2022/06/02 16:56:41;;;;;;;;;;;;;;;22.59;26.98;100371.38;10393026;28;19932;-61
2022/06/02 17:01:45;;;;;;;;;;;;;;;22.52;27.28;100371.38;10394600;28;20078;-64
2022/06/02 17:07:04;;;;;;;;;;;;;;;22.54;27.69;100368.44;10413052;28;19940;-63
2022/06/02 17:12:10;;;;;;;;;;;;;;;22.51;27.45;100372.38;10403598;28;19932;-65
2022/06/02 17:17:23;;;;;;;;;;;;;;;22.51;27.81;100375.09;10405277;28;19940;-63
2022/06/02 17:22:39;;;;;;;;;;;;;;;22.50;28.43;100373.41;10398028;28;19929;-60
2022/06/02 17:27:52;;;;;;;;;;;;;;;22.48;28.67;100364.66;10399437;28;19929;-61
2022/06/02 17:33:02;;;;;;;;;;;;;;;22.41;28.60;100366.47;10392365;28;20575;-60
2022/06/02 17:38:23;;;;;;;;;;;;;;;22.33;28.56;100372.06;10391288;28;19956;-61
2022/06/02 17:43:30;;;;;;;;;;;;;;;22.26;28.97;100366.56;10396044;28;19928;-61
2022/06/02 17:48:44;;;;;;;;;;;;;;;22.18;29.28;100372.13;10392730;28;19929;-61
2022/06/02 17:54:04;;;;;;;;;;;;;;;22.12;29.54;100376.47;10393079;28;19933;-60
2022/06/02 17:59:25;;;;;;;;;;;;;;;22.03;29.84;100383.06;10390872;28;20463;-61
2022/06/02 18:04:32;;;;;;;;;;;;;;;21.97;30.24;100378.44;10387472;28;19936;-62
2022/06/02 18:09:46;;;;;;;;;;;;;;;21.89;30.52;100382.13;10397376;28;19936;-61
2022/06/02 18:14:47;;;;;;;;;;;;;;;21.80;30.91;100384.13;10422029;28;20498;-60
2022/06/02 18:19:49;;;;;;;;;;;;;;;21.69;31.28;100379.22;10389016;28;20792;-61
2022/06/02 18:25:02;;;;;;;;;;;;;;;21.59;31.75;100375.97;10393626;28;19929;-61
2022/06/02 18:30:03;;;;;;;;;;;;;;;21.50;32.08;100370.69;10390547;28;19929;-60
2022/06/02 18:35:23;;;;;;;;;;;;;;;21.41;32.82;100360.13;10390496;27;19929;-60
2022/06/02 18:40:25;;;;;;;;;;;;;;;21.34;33.64;100352.78;10407566;28;19929;-60
2022/06/02 18:45:35;;;;;;;;;;;;;;;21.23;35.27;100360.56;10381177;28;20151;-59
2022/06/02 18:50:37;;;;;;;;;;;;;;;21.13;35.27;100353.59;10383591;28;20840;-60
2022/06/02 18:55:42;;;;;;;;;;;;;;;21.00;35.85;100351.59;10386220;28;19928;-61
2022/06/02 19:00:53;;;;;;;;;;;;;;;20.93;35.73;100347.94;10394463;28;19936;-62
2022/06/02 19:05:57;;;;;;;;;;;;;;;20.86;36.38;100351.59;10382043;28;19939;-60
2022/06/02 19:16:33;;;;;;;;;;;;;;;20.69;37.20;100356.34;10390228;28;19935;-60
2022/06/02 19:21:44;;;;;;;;;;;;;;;20.59;37.27;100365.56;10390884;28;20463;-60
2022/06/02 19:26:54;;;;;;;;;;;;;;;20.32;37.54;100342.72;10387912;28;19936;-60
2022/06/02 19:32:11;;;;;;;;;;;;;;;20.42;38.57;100381.13;10388278;28;20102;-62
2022/06/02 19:37:22;;;;;;;;;;;;;;;20.36;38.59;100376.47;10393495;28;19939;-62
2022/06/02 19:42:41;;;;;;;;;;;;;;;20.25;39.13;100383.19;10424455;28;19929;-60
2022/06/02 19:47:48;;;;;;;;;;;;;;;20.26;38.89;100392.94;10388727;28;20233;-62
2022/06/02 19:52:55;;;;;;;;;;;;;;;20.21;39.03;100394.53;10390880;28;20363;-62
2022/06/02 19:58:07;;;;;;;;;;;;;;;20.12;39.46;100394.59;10389208;28;19940;-62
2022/06/02 20:03:09;;;;;;;;;;;;;;;19.94;40.37;100386.81;10390195;28;19930;-62
2022/06/02 20:08:16;;;;;;;;;;;;;;;19.73;40.22;100387.47;10398363;28;20846;-62
2022/06/02 20:13:18;;;;;;;;;;;;;;;19.70;40.55;100392.38;10405631;28;19933;-60
2022/06/02 20:18:38;;;;;;;;;;;;;;;19.68;41.41;100406.06;10396350;28;19932;-61
2022/06/02 20:23:59;;;;;;;;;;;;;;;19.40;40.83;100371.47;10391417;28;19935;-62
2022/06/02 20:29:19;;;;;;;;;;;;;;;19.45;41.30;100399.81;10391651;27;19968;-62
2022/06/02 20:34:21;;;;;;;;;;;;;;;19.31;42.04;100399.53;10393193;28;20004;-63
2022/06/02 20:39:34;;;;;;;;;;;;;;;19.42;41.82;100404.53;10393613;28;19924;-63
2022/06/02 20:44:59;;;;;;;;;;;;;;;19.34;42.34;100399.19;10390633;28;20693;-63
2022/06/02 20:50:04;;;;;;;;;;;;;;;19.36;42.23;100402.53;10388988;28;19932;-63
2022/06/02 20:55:08;;;;;;;;;;;;;;;19.28;42.59;100399.91;10389144;28;20721;-63
2022/06/02 21:00:25;;;;;;;;;;;;;;;19.11;42.79;100403.69;10392332;28;19929;-65
2022/06/02 21:05:32;;;;;;;;;;;;;;;19.04;42.87;100395.47;10386589;28;19964;-63
2022/06/02 21:10:42;;;;;;;;;;;;;;;18.96;43.33;100401.75;10407950;28;19935;-63
2022/06/02 21:15:54;;;;;;;;;;;;;;;18.91;43.52;100398.72;10395787;28;20007;-62
2022/06/02 21:21:16;;;;;;;;;;;;;;;18.83;43.51;100398.72;10393236;28;19929;-62
2022/06/02 21:26:39;;;;;;;;;;;;;;;18.75;43.75;100407.69;10396455;28;20616;-63
2022/06/02 21:31:41;;;;;;;;;;;;;;;18.70;43.99;100408.19;10401758;28;20550;-63
2022/06/02 21:36:52;;;;;;;;;;;;;;;18.65;43.94;100424.03;10393474;28;19940;-62
2022/06/02 21:41:53;;;;;;;;;;;;;;;18.59;43.90;100416.66;10391804;28;20599;-63
2022/06/02 21:46:59;;;;;;;;;;;;;;;18.53;43.74;100406.56;10390760;28;19935;-62
2022/06/02 21:52:13;;;;;;;;;;;;;;;18.43;44.27;100422.06;10392672;28;19925;-63
2022/06/02 21:57:35;;;;;;;;;;;;;;;18.35;44.34;100409.44;10392524;28;20589;-62
2022/06/02 22:02:42;;;;;;;;;;;;;;;18.27;44.64;100406.75;10388471;28;20482;-62
2022/06/02 22:07:57;;;;;;;;;;;;;;;18.21;44.69;100405.59;10395403;28;20478;-62
2022/06/02 22:13:16;;;;;;;;;;;;;;;18.16;44.64;100397.16;10390407;28;20410;-63
2022/06/02 22:18:20;;;;;;;;;;;;;;;17.92;45.15;100398.84;10390108;28;19935;-62
2022/06/02 22:23:22;;;;;;;;;;;;;;;17.90;45.30;100395.50;10386678;28;20035;-62
2022/06/02 22:28:46;;;;;;;;;;;;;;;17.79;45.46;100390.41;10389972;28;20585;-62
2022/06/02 22:33:48;;;;;;;;;;;;;;;17.79;45.81;100393.09;10388820;28;19929;-62
2022/06/02 22:39:02;;;;;;;;;;;;;;;17.74;45.62;100393.59;10384239;28;20299;-62
2022/06/02 22:44:22;;;;;;;;;;;;;;;17.74;45.70;100406.22;10394704;28;20020;-63
2022/06/02 22:49:26;;;;;;;;;;;;;;;17.75;45.18;100402.53;10386145;28;19935;-63
2022/06/02 22:55:03;;;;;;;;;;;;;;;17.66;45.96;100399.81;10386614;28;19929;-62
2022/06/02 23:00:07;;;;;;;;;;;;;;;17.74;45.46;100395.44;10390072;28;19931;-62
2022/06/02 23:05:34;;;;;;;;;;;;;;;17.76;45.37;100396.13;10388656;28;20636;-63
2022/06/02 23:10:42;;;;;;;;;;;;;;;17.73;45.78;100404.53;10399043;28;19932;-67
2022/06/02 23:15:44;;;;;;;;;;;;;;;17.66;45.94;100397.13;10393669;28;19955;-62
2022/06/02 23:20:52;;;;;;;;;;;;;;;17.60;45.91;100387.03;10386702;28;21485;-62
2022/06/02 23:26:03;;;;;;;;;;;;;;;17.55;46.03;100386.69;10388146;28;19933;-62
2022/06/02 23:31:23;;;;;;;;;;;;;;;17.55;45.90;100386.69;10389237;28;19929;-62
2022/06/02 23:36:44;;;;;;;;;;;;;;;17.51;45.97;100379.94;10382193;28;19936;-62
2022/06/02 23:47:13;;;;;;;;;;;;;;;17.36;46.38;100387.00;10396374;28;20318;-64
2022/06/02 23:52:33;;;;;;;;;;;;;;;17.08;46.17;100349.56;10396644;28;19935;-62
2022/06/02 23:57:43;;;;;;;;;;;;;;;17.24;46.71;100394.53;10393748;28;19932;-62
